Terminal Aerodrome Forecast
Issued by NWS Upton, NY

Home | Current Version | Previous Version | Text Only | Print | Product List | Glossary On
Versions: 1 2 3 4 5 6 7 8 9 10 11 12 13 14 15 16 17 18 19 20 21 22 23 24 25 26 27 28 29 30 31 32 33 34 35 36 37 38
000
FTUS41 KOKX 280240 AAA
TAFISP
TAF AMD
KISP 280240Z 2803/2824 21004KT P6SM SCT110
     FM281000 10004KT P6SM BKN070
     FM281800 14007KT P6SM SCT040 BKN200
     FM282100 15008KT 6SM -RA BKN020 OVC040=

USA.gov is the U.S. government's official web portal to all federal, state and local government web resources and services.